createdAt,value
2019-03-22T00:00:12.885Z,73.40
2019-03-22T00:02:45.111Z,70.65
2019-03-22T00:05:17.679Z,69.72
2019-03-22T00:07:49.640Z,70.70
2019-03-22T00:10:22.132Z,69.70
2019-03-22T00:12:54.204Z,72.17
2019-03-22T00:15:26.316Z,71.35
2019-03-22T00:17:58.579Z,71.95
2019-03-22T00:20:30.601Z,68.65
2019-03-22T00:23:02.958Z,68.95
2019-03-22T00:25:35.643Z,71.80
2019-03-22T00:28:10.399Z,99.28
2019-03-22T00:31:49.692Z,74.87
2019-03-22T00:34:21.661Z,78.22
2019-03-22T00:36:54.130Z,75.05
2019-03-22T00:39:26.219Z,74.70
2019-03-22T00:41:58.386Z,75.50
2019-03-22T00:44:30.549Z,73.02
2019-03-22T00:47:02.702Z,76.53
2019-03-22T00:49:35.382Z,79.67
2019-03-22T00:52:07.645Z,76.55
2019-03-22T00:54:39.690Z,66.28
2019-03-22T00:57:11.556Z,65.83
2019-03-22T00:59:43.766Z,70.80
2019-03-22T01:02:15.885Z,63.17
2019-03-22T01:04:48.910Z,76.82
2019-03-22T01:07:21.173Z,72.12
2019-03-22T01:09:53.021Z,69.10
2019-03-22T01:12:25.708Z,68.95
2019-03-22T01:14:57.662Z,63.92
2019-03-22T01:17:29.627Z,65.05
2019-03-22T01:20:01.652Z,60.67
2019-03-22T01:22:33.971Z,75.00
2019-03-22T01:25:13.093Z,73.00
2019-03-22T01:27:45.778Z,73.92
2019-03-22T01:30:19.634Z,73.70
2019-03-22T01:32:52.726Z,75.08
2019-03-22T01:35:24.667Z,73.25
2019-03-22T01:37:57.431Z,66.30
2019-03-22T01:40:32.900Z,78.00
2019-03-22T01:43:05.505Z,72.53
2019-03-22T01:45:37.720Z,65.78
2019-03-22T01:48:09.974Z,70.30
2019-03-22T01:51:04.045Z,69.20
2019-03-22T01:53:36.300Z,63.10
2019-03-22T01:56:09.278Z,72.58
2019-03-22T01:58:41.102Z,65.22
2019-03-22T02:01:13.040Z,67.90
2019-03-22T02:03:46.514Z,64.53
2019-03-22T02:06:18.656Z,59.50
2019-03-22T02:08:51.252Z,49.55
2019-03-22T02:11:23.110Z,58.38
2019-03-22T02:13:55.353Z,55.85
2019-03-22T02:16:30.506Z,52.55
2019-03-22T02:19:22.058Z,60.50
2019-03-22T02:21:54.267Z,55.20
2019-03-22T02:24:26.795Z,71.92
2019-03-22T02:26:59.159Z,68.65
2019-03-22T02:29:32.564Z,48.08
2019-03-22T02:32:05.105Z,50.33
2019-03-22T02:34:37.073Z,55.88
2019-03-22T02:37:09.401Z,47.60
2019-03-22T02:39:41.765Z,42.20
2019-03-22T02:42:14.077Z,48.65
2019-03-22T02:44:45.974Z,49.75
2019-03-22T02:47:22.353Z,48.25
2019-03-22T02:49:54.707Z,51.13
2019-03-22T02:52:28.885Z,49.10
2019-03-22T02:55:00.754Z,44.10
2019-03-22T02:57:33.285Z,52.73
2019-03-22T03:00:06.405Z,47.35
2019-03-22T03:02:38.759Z,43.55
2019-03-22T03:05:12.292Z,42.65
2019-03-22T03:07:44.592Z,45.25
2019-03-22T03:10:18.799Z,49.48
2019-03-22T03:12:51.528Z,45.03
2019-03-22T03:15:23.977Z,52.95
2019-03-22T03:17:55.945Z,43.70
2019-03-22T03:20:29.074Z,51.00
2019-03-22T03:23:05.314Z,40.92
2019-03-22T03:25:37.418Z,42.43
2019-03-22T03:28:36.532Z,45.90
2019-03-22T03:31:02.761Z,41.50
2019-03-22T03:33:35.619Z,37.17
2019-03-22T03:36:08.243Z,40.45
2019-03-22T03:38:40.992Z,44.90
2019-03-22T03:41:13.220Z,37.67
2019-03-22T03:43:45.226Z,35.13
2019-03-22T03:46:17.694Z,38.23
2019-03-22T03:48:51.231Z,36.68
2019-03-22T03:51:23.810Z,34.83
2019-03-22T03:53:56.573Z,42.83
2019-03-22T03:56:29.975Z,41.05
2019-03-22T03:59:05.480Z,37.35
2019-03-22T04:01:38.833Z,40.05
2019-03-22T04:04:11.075Z,33.55
2019-03-22T04:06:46.616Z,32.75
2019-03-22T04:09:18.782Z,35.17
2019-03-22T04:11:50.697Z,34.35
2019-03-22T04:14:23.167Z,33.30
2019-03-22T04:16:55.223Z,36.40
2019-03-22T04:19:26.967Z,38.95
2019-03-22T04:22:18.280Z,31.37
2019-03-22T04:24:50.773Z,42.83
2019-03-22T04:27:22.821Z,34.53
2019-03-22T04:29:54.887Z,37.70
2019-03-22T04:32:26.888Z,35.48
2019-03-22T04:34:59.020Z,31.85
2019-03-22T04:37:31.242Z,36.75
2019-03-22T04:40:03.589Z,32.17
2019-03-22T04:42:35.582Z,31.05
2019-03-22T04:45:09.420Z,32.58
2019-03-22T04:47:42.206Z,29.12
2019-03-22T04:50:15.596Z,30.08
2019-03-22T04:52:48.051Z,34.25
2019-03-22T04:55:23.075Z,28.15
2019-03-22T04:57:59.616Z,32.95
2019-03-22T05:00:32.245Z,32.17
2019-03-22T05:03:14.808Z,34.50
2019-03-22T05:05:50.011Z,30.23
2019-03-22T05:08:24.236Z,25.85
2019-03-22T05:11:00.440Z,26.07
2019-03-22T05:13:35.175Z,28.80
2019-03-22T05:16:10.912Z,31.05
2019-03-22T05:18:46.250Z,32.90
2019-03-22T05:21:20.850Z,28.65
2019-03-22T05:23:56.475Z,25.95
2019-03-22T05:26:33.759Z,25.60
2019-03-22T05:29:30.907Z,26.00
2019-03-22T05:32:03.938Z,28.42
2019-03-22T05:34:35.768Z,25.88
2019-03-22T05:37:08.376Z,31.07
2019-03-22T05:39:41.011Z,28.42
2019-03-22T05:42:13.175Z,25.65
2019-03-22T05:44:45.436Z,26.60
2019-03-22T05:47:17.618Z,30.95
2019-03-22T05:49:53.501Z,29.30
2019-03-22T05:52:44.773Z,25.23
2019-03-22T05:55:16.572Z,34.43
2019-03-22T05:57:49.382Z,25.08
2019-03-22T06:00:21.847Z,28.10
2019-03-22T06:02:54.197Z,30.50
2019-03-22T06:05:27.593Z,25.32
2019-03-22T06:08:18.943Z,24.77
2019-03-22T06:11:10.486Z,23.15
2019-03-22T06:13:44.458Z,25.30
2019-03-22T06:16:37.246Z,29.20
2019-03-22T06:19:09.624Z,26.05
2019-03-22T06:21:42.328Z,33.13
2019-03-22T06:24:14.820Z,24.95
2019-03-22T06:26:47.482Z,31.73
2019-03-22T06:29:20.142Z,24.35
2019-03-22T06:31:53.094Z,26.00
2019-03-22T06:34:25.337Z,25.62
2019-03-22T06:37:21.373Z,25.92
2019-03-22T06:39:54.437Z,30.10
2019-03-22T06:42:46.634Z,25.37
2019-03-22T06:45:22.401Z,29.00
2019-03-22T06:47:54.777Z,30.60
2019-03-22T06:50:26.881Z,29.70
2019-03-22T06:52:59.072Z,27.85
2019-03-22T06:55:31.498Z,29.37
2019-03-22T06:58:05.102Z,30.85
2019-03-22T07:00:37.390Z,28.62
2019-03-22T07:03:12.173Z,27.32
2019-03-22T07:05:44.536Z,28.73
2019-03-22T07:08:36.752Z,33.15
2019-03-22T07:11:09.044Z,32.23
2019-03-22T07:13:41.120Z,27.55
2019-03-22T07:16:13.442Z,27.90
2019-03-22T07:18:45.606Z,27.37
2019-03-22T07:21:17.650Z,28.35
2019-03-22T07:23:49.786Z,29.20
2019-03-22T07:26:22.154Z,28.65
2019-03-22T07:28:54.410Z,27.22
2019-03-22T07:31:26.488Z,26.40
2019-03-22T07:33:58.598Z,28.47
2019-03-22T07:36:31.494Z,32.35
2019-03-22T07:39:03.638Z,26.45
2019-03-22T07:41:36.063Z,31.30
2019-03-22T07:44:08.304Z,25.27
2019-03-22T07:46:40.843Z,27.80
2019-03-22T07:49:13.083Z,30.10
2019-03-22T07:51:45.202Z,28.25
2019-03-22T07:54:26.822Z,24.85
2019-03-22T07:56:58.825Z,23.83
2019-03-22T07:59:32.908Z,29.18
2019-03-22T08:02:05.118Z,26.12
2019-03-22T08:04:39.587Z,32.28
2019-03-22T08:07:11.665Z,25.48
2019-03-22T08:09:43.839Z,27.35
2019-03-22T08:12:16.343Z,25.82
2019-03-22T08:14:48.558Z,22.73
2019-03-22T08:17:20.541Z,26.30
2019-03-22T08:19:52.484Z,22.73
2019-03-22T08:22:24.762Z,22.40
2019-03-22T08:24:56.638Z,26.68
2019-03-22T08:27:28.863Z,23.47
2019-03-22T08:30:00.768Z,27.15
2019-03-22T08:32:33.008Z,27.58
2019-03-22T08:35:25.156Z,21.75
2019-03-22T08:37:57.332Z,24.87
2019-03-22T08:40:48.780Z,33.53
2019-03-22T08:43:20.934Z,24.32
2019-03-22T08:45:56.848Z,23.55
2019-03-22T08:48:29.114Z,26.82
2019-03-22T08:51:02.464Z,24.57
2019-03-22T08:53:34.780Z,32.25
2019-03-22T08:56:08.687Z,24.92
2019-03-22T08:58:44.027Z,26.50
2019-03-22T09:01:17.620Z,29.45
2019-03-22T09:03:49.638Z,21.68
2019-03-22T09:06:21.684Z,22.20
2019-03-22T09:08:56.355Z,20.95
2019-03-22T09:11:28.703Z,21.87
2019-03-22T09:14:00.682Z,22.32
2019-03-22T09:16:33.025Z,22.42
2019-03-22T09:19:05.247Z,23.75
2019-03-22T09:21:37.576Z,20.12
2019-03-22T09:24:09.828Z,21.37
2019-03-22T09:26:47.616Z,23.18
2019-03-22T09:29:16.141Z,20.00
2019-03-22T09:31:48.455Z,22.20
2019-03-22T09:34:33.080Z,21.48
2019-03-22T09:36:57.539Z,24.43
2019-03-22T09:39:30.279Z,22.07
2019-03-22T09:42:03.496Z,25.57
2019-03-22T09:44:43.166Z,27.90
2019-03-22T09:47:09.634Z,33.85
2019-03-22T09:49:42.095Z,21.90
2019-03-22T09:52:14.298Z,23.15
2019-03-22T09:54:46.876Z,24.23
2019-03-22T09:57:19.356Z,27.82
2019-03-22T09:59:51.587Z,23.38
2019-03-22T10:02:24.952Z,24.47
2019-03-22T10:04:56.723Z,31.52
2019-03-22T10:07:28.815Z,25.50
2019-03-22T10:10:02.907Z,32.33
2019-03-22T10:12:38.184Z,30.88
2019-03-22T10:15:19.885Z,32.80
2019-03-22T10:17:52.107Z,23.75
2019-03-22T10:20:23.978Z,25.50
2019-03-22T10:22:56.418Z,25.17
2019-03-22T10:25:28.784Z,31.62
2019-03-22T10:28:01.811Z,33.40
2019-03-22T10:30:33.933Z,30.55
2019-03-22T10:33:06.635Z,22.15
2019-03-22T10:35:38.801Z,24.90
2019-03-22T10:38:16.272Z,26.65
2019-03-22T10:40:44.845Z,25.50
2019-03-22T10:43:27.285Z,24.75
2019-03-22T10:46:00.023Z,42.80
2019-03-22T10:48:33.226Z,28.12
2019-03-22T10:51:07.167Z,21.97
2019-03-22T10:53:39.577Z,27.67
2019-03-22T10:56:11.838Z,34.48
2019-03-22T10:58:44.152Z,32.30
2019-03-22T11:01:16.459Z,21.35
2019-03-22T11:03:50.109Z,30.20
2019-03-22T11:06:26.284Z,32.28
2019-03-22T11:08:56.015Z,36.00
2019-03-22T11:11:30.755Z,34.05
2019-03-22T11:14:03.175Z,24.43
2019-03-22T11:16:35.170Z,38.73
2019-03-22T11:19:07.106Z,27.22
2019-03-22T11:21:39.324Z,39.63
2019-03-22T11:24:11.455Z,36.77
2019-03-22T11:26:43.685Z,44.95
2019-03-22T11:29:16.418Z,41.23
2019-03-22T11:31:48.522Z,33.67
2019-03-22T11:34:20.662Z,38.05
2019-03-22T11:36:53.932Z,37.88
2019-03-22T11:39:25.854Z,39.53
2019-03-22T11:41:59.237Z,33.28
2019-03-22T11:44:31.649Z,37.80
2019-03-22T11:47:24.267Z,50.20
2019-03-22T11:49:56.403Z,54.27
2019-03-22T11:52:28.478Z,36.00
2019-03-22T11:55:00.970Z,34.73
2019-03-22T11:57:33.059Z,40.88
2019-03-22T12:00:06.527Z,37.60
2019-03-22T12:02:38.716Z,30.75
2019-03-22T12:05:12.672Z,29.10
2019-03-22T12:07:44.817Z,30.95
2019-03-22T12:10:20.787Z,30.43
2019-03-22T12:12:52.969Z,34.23
2019-03-22T12:15:26.908Z,30.10
2019-03-22T12:17:58.875Z,33.02
2019-03-22T12:20:31.583Z,37.83
2019-03-22T12:23:03.946Z,34.43
2019-03-22T12:25:55.229Z,29.98
2019-03-22T12:28:27.966Z,38.50
2019-03-22T12:31:00.108Z,33.55
2019-03-22T12:33:36.127Z,34.48
2019-03-22T12:36:08.447Z,33.58
2019-03-22T12:38:41.329Z,44.88
2019-03-22T12:41:13.302Z,31.33
2019-03-22T12:43:50.194Z,27.82
2019-03-22T12:46:22.652Z,29.23
2019-03-22T12:48:54.868Z,29.15
2019-03-22T12:51:26.882Z,31.62
2019-03-22T12:53:59.707Z,30.17
2019-03-22T12:56:31.776Z,24.43
2019-03-22T12:59:04.335Z,27.62
2019-03-22T13:01:36.694Z,32.55
2019-03-22T13:04:09.296Z,34.03
2019-03-22T13:06:42.194Z,30.45
2019-03-22T13:09:14.029Z,38.02
2019-03-22T13:11:46.613Z,34.10
2019-03-22T13:14:18.865Z,31.02
2019-03-22T13:16:50.888Z,30.27
2019-03-22T13:19:23.324Z,37.42
2019-03-22T13:21:55.523Z,35.35
2019-03-22T13:24:27.447Z,31.82
2019-03-22T13:26:59.841Z,34.30
2019-03-22T13:29:32.426Z,48.63
2019-03-22T13:32:04.678Z,41.23
2019-03-22T13:34:36.897Z,43.55
2019-03-22T13:37:09.188Z,48.83
2019-03-22T13:39:41.276Z,51.28
2019-03-22T13:42:13.523Z,58.60
2019-03-22T13:44:46.110Z,52.00
2019-03-22T13:47:18.355Z,36.85
2019-03-22T13:49:50.581Z,37.10
2019-03-22T13:52:23.266Z,37.35
2019-03-22T13:54:55.174Z,44.85
2019-03-22T13:57:27.317Z,32.28
2019-03-22T13:59:59.280Z,40.95
2019-03-22T14:02:31.272Z,38.78
2019-03-22T14:05:06.235Z,33.00
2019-03-22T14:07:39.462Z,34.80
2019-03-22T14:10:15.104Z,38.98
2019-03-22T14:12:47.224Z,43.52
2019-03-22T14:15:20.227Z,46.70
2019-03-22T14:17:52.239Z,42.17
2019-03-22T14:20:24.627Z,46.45
2019-03-22T14:22:56.729Z,51.90
2019-03-22T14:25:28.890Z,44.42
2019-03-22T14:28:01.156Z,49.48
2019-03-22T14:30:33.084Z,45.23
2019-03-22T14:33:12.905Z,46.18
2019-03-22T14:35:39.275Z,41.50
2019-03-22T14:38:12.316Z,51.75
2019-03-22T14:40:44.349Z,47.85
2019-03-22T14:43:16.870Z,49.38
2019-03-22T14:45:49.058Z,41.10
2019-03-22T14:48:21.009Z,45.52
2019-03-22T14:50:56.754Z,42.43
2019-03-22T14:53:28.816Z,42.58
2019-03-22T14:56:01.530Z,43.90
2019-03-22T14:58:33.586Z,44.63
2019-03-22T15:01:05.499Z,44.42
2019-03-22T15:03:38.266Z,42.40
2019-03-22T15:06:10.622Z,42.05
2019-03-22T15:08:44.347Z,40.80
2019-03-22T15:11:16.572Z,42.95
2019-03-22T15:13:50.513Z,42.25
2019-03-22T15:16:24.362Z,44.10
2019-03-22T15:18:58.230Z,48.98
2019-03-22T15:21:31.616Z,41.15
2019-03-22T15:24:08.904Z,43.58
2019-03-22T15:26:42.416Z,45.50
2019-03-22T15:29:16.222Z,43.40
2019-03-22T15:31:49.715Z,43.17
2019-03-22T15:34:26.465Z,37.67
2019-03-22T15:37:00.865Z,39.20
2019-03-22T15:39:34.949Z,42.83
2019-03-22T15:42:07.202Z,45.80
2019-03-22T15:44:39.677Z,40.55
2019-03-22T15:47:11.607Z,47.62
2019-03-22T15:49:43.524Z,42.55
2019-03-22T15:52:15.706Z,41.85
2019-03-22T15:54:48.386Z,39.53
2019-03-22T15:57:20.460Z,44.88
2019-03-22T15:59:52.721Z,40.67
2019-03-22T16:02:24.756Z,42.78
2019-03-22T16:04:56.805Z,40.75
2019-03-22T16:07:29.047Z,47.55
2019-03-22T16:10:02.721Z,43.75
2019-03-22T16:12:35.076Z,40.88
2019-03-22T16:15:10.668Z,43.25
2019-03-22T16:17:43.383Z,43.40
2019-03-22T16:20:35.009Z,41.80
2019-03-22T16:23:07.821Z,44.93
2019-03-22T16:25:40.303Z,45.30
2019-03-22T16:28:12.443Z,45.63
2019-03-22T16:30:44.920Z,46.25
2019-03-22T16:33:17.223Z,44.53
2019-03-22T16:35:50.174Z,45.58
2019-03-22T16:38:22.123Z,46.30
2019-03-22T16:40:55.060Z,45.15
2019-03-22T16:43:27.224Z,47.62
2019-03-22T16:45:59.351Z,45.28
2019-03-22T16:48:31.752Z,46.88
2019-03-22T16:51:04.142Z,48.45
2019-03-22T16:53:36.245Z,48.45
2019-03-22T16:56:08.589Z,42.55
2019-03-22T16:58:40.752Z,42.75
2019-03-22T17:01:13.002Z,47.60
2019-03-22T17:03:45.387Z,45.73
2019-03-22T17:06:17.378Z,45.40
2019-03-22T17:08:49.657Z,51.88
2019-03-22T17:11:22.840Z,50.90
2019-03-22T17:13:55.103Z,47.83
2019-03-22T17:16:27.319Z,45.63
2019-03-22T17:19:00.369Z,46.83
2019-03-22T17:21:33.425Z,40.80
2019-03-22T17:24:05.460Z,44.53
2019-03-22T17:26:37.739Z,49.15
2019-03-22T17:29:09.775Z,48.70
2019-03-22T17:31:41.933Z,42.60
2019-03-22T17:34:14.693Z,51.10
2019-03-22T17:36:46.773Z,45.65
2019-03-22T17:39:18.843Z,47.73
2019-03-22T17:41:51.119Z,54.35
2019-03-22T17:44:23.241Z,47.05
2019-03-22T17:46:55.400Z,49.45
2019-03-22T17:49:27.757Z,46.88
2019-03-22T17:51:59.591Z,44.25
2019-03-22T17:54:31.967Z,43.85
2019-03-22T17:57:03.788Z,46.00
2019-03-22T17:59:35.885Z,42.27
2019-03-22T18:02:08.689Z,43.87
2019-03-22T18:04:40.714Z,50.08
2019-03-22T18:07:12.852Z,51.08
2019-03-22T18:09:44.888Z,48.98
2019-03-22T18:12:17.751Z,44.35
2019-03-22T18:14:49.881Z,40.70
2019-03-22T18:17:22.461Z,43.10
2019-03-22T18:19:54.594Z,48.55
2019-03-22T18:22:26.826Z,40.63
2019-03-22T18:24:59.301Z,43.38
2019-03-22T18:27:31.403Z,40.50
2019-03-22T18:30:03.630Z,47.98
2019-03-22T18:32:36.387Z,41.90
2019-03-22T18:35:09.484Z,46.92
2019-03-22T18:37:42.001Z,48.02
2019-03-22T18:40:16.463Z,43.52
2019-03-22T18:42:48.508Z,45.58
2019-03-22T18:45:20.459Z,45.03
2019-03-22T18:47:52.731Z,45.35
2019-03-22T18:50:25.097Z,43.75
2019-03-22T18:52:57.598Z,47.60
2019-03-22T18:55:29.623Z,45.10
2019-03-22T18:58:02.242Z,49.77
2019-03-22T19:00:35.147Z,45.05
2019-03-22T19:03:07.179Z,41.92
2019-03-22T19:05:39.242Z,39.75
2019-03-22T19:08:12.517Z,48.50
2019-03-22T19:10:45.882Z,45.10
2019-03-22T19:13:18.832Z,44.10
2019-03-22T19:15:51.359Z,42.50
2019-03-22T19:18:23.455Z,47.25
2019-03-22T19:20:55.419Z,43.98
2019-03-22T19:23:27.814Z,38.80
2019-03-22T19:26:00.405Z,48.85
2019-03-22T19:28:32.624Z,51.20
2019-03-22T19:31:04.889Z,49.35
2019-03-22T19:33:37.327Z,45.25
2019-03-22T19:36:09.442Z,49.93
2019-03-22T19:38:41.945Z,46.15
2019-03-22T19:41:13.984Z,51.55
2019-03-22T19:43:45.847Z,45.48
2019-03-22T19:46:18.003Z,41.48
2019-03-22T19:48:50.018Z,48.52
2019-03-22T19:51:22.051Z,40.52
2019-03-22T19:53:55.170Z,48.28
2019-03-22T19:56:27.426Z,47.62
2019-03-22T19:58:59.921Z,47.55
2019-03-22T20:01:32.091Z,44.15
2019-03-22T20:04:04.137Z,49.18
2019-03-22T20:06:36.477Z,43.80
2019-03-22T20:09:11.740Z,40.50
2019-03-22T20:12:03.399Z,46.92
2019-03-22T20:14:49.181Z,40.75
2019-03-22T20:17:21.249Z,48.83
2019-03-22T20:19:53.437Z,41.30
2019-03-22T20:22:25.387Z,48.60
2019-03-22T20:24:58.291Z,37.75
2019-03-22T20:27:30.332Z,45.25
2019-03-22T20:30:02.439Z,41.65
2019-03-22T20:32:34.591Z,44.23
2019-03-22T20:35:16.420Z,51.25
2019-03-22T20:37:43.102Z,48.63
2019-03-22T20:40:19.481Z,47.25
2019-03-22T20:42:51.605Z,51.65
2019-03-22T20:45:24.573Z,46.68
2019-03-22T20:47:57.387Z,47.05
2019-03-22T20:50:35.753Z,61.63
2019-03-22T20:53:03.552Z,56.55
2019-03-22T20:55:36.608Z,56.30
2019-03-22T20:58:08.456Z,60.60
2019-03-22T21:00:40.981Z,47.50
2019-03-22T21:03:13.124Z,55.75
2019-03-22T21:05:45.685Z,53.08
2019-03-22T21:08:18.281Z,49.00
2019-03-22T21:10:50.986Z,51.75
2019-03-22T21:13:23.020Z,56.75
2019-03-22T21:15:56.241Z,51.70
2019-03-22T21:18:28.381Z,50.58
2019-03-22T21:21:00.403Z,48.17
2019-03-22T21:23:36.626Z,53.87
2019-03-22T21:26:06.733Z,65.10
2019-03-22T21:28:39.525Z,58.23
2019-03-22T21:31:11.603Z,54.05
2019-03-22T21:33:43.741Z,57.13
2019-03-22T21:36:16.321Z,51.77
2019-03-22T21:39:09.347Z,57.88
2019-03-22T21:41:41.994Z,57.25
2019-03-22T21:44:14.250Z,55.78
2019-03-22T21:46:46.348Z,60.03
2019-03-22T21:49:18.713Z,55.25
2019-03-22T21:51:51.229Z,60.55
2019-03-22T21:54:23.084Z,61.08
2019-03-22T21:56:55.214Z,58.05
2019-03-22T21:59:27.220Z,53.68
2019-03-22T22:01:59.311Z,57.38
2019-03-22T22:04:31.337Z,60.17
2019-03-22T22:07:03.291Z,61.30
2019-03-22T22:09:35.200Z,93.50
2019-03-22T22:12:07.585Z,65.12
2019-03-22T22:14:40.989Z,72.45
2019-03-22T22:17:13.909Z,66.97
2019-03-22T22:19:47.262Z,76.40
2019-03-22T22:22:19.667Z,82.57
2019-03-22T22:24:51.993Z,82.08
2019-03-22T22:27:24.388Z,77.60
2019-03-22T22:29:57.202Z,72.70
2019-03-22T22:32:29.298Z,67.05
2019-03-22T22:35:01.080Z,95.60
2019-03-22T22:37:33.216Z,69.35
2019-03-22T22:40:07.192Z,61.83
2019-03-22T22:42:39.578Z,67.15
2019-03-22T22:45:12.969Z,88.10
2019-03-22T22:48:04.776Z,76.25
2019-03-22T22:50:36.935Z,73.80
2019-03-22T22:53:08.831Z,73.30
2019-03-22T22:55:41.990Z,72.80
2019-03-22T22:58:14.348Z,81.65
2019-03-22T23:00:48.321Z,149.30
2019-03-22T23:03:20.916Z,106.67
2019-03-22T23:05:53.837Z,119.77
2019-03-22T23:08:26.026Z,132.10
2019-03-22T23:10:57.963Z,104.95
2019-03-22T23:13:30.585Z,108.10
2019-03-22T23:16:02.828Z,102.45
2019-03-22T23:18:35.804Z,106.83
2019-03-22T23:21:07.954Z,94.83
2019-03-22T23:23:40.186Z,84.25
2019-03-22T23:26:14.974Z,82.60
2019-03-22T23:28:47.015Z,75.03
2019-03-22T23:31:19.233Z,76.97
2019-03-22T23:33:51.375Z,80.40
2019-03-22T23:36:24.024Z,83.27
2019-03-22T23:38:55.911Z,82.17
2019-03-22T23:41:28.035Z,83.87
2019-03-22T23:44:00.375Z,89.87
2019-03-22T23:46:32.597Z,82.57
2019-03-22T23:49:05.445Z,79.37
2019-03-22T23:51:37.662Z,83.35
2019-03-22T23:54:09.997Z,81.47
2019-03-22T23:56:42.375Z,89.03
2019-03-22T23:59:14.777Z,81.55
